createdAt,value
2022-09-09T00:01:01.312Z,18.33
2022-09-09T00:03:33.248Z,18.35
2022-09-09T00:06:23.144Z,18.34
2022-09-09T00:09:01.584Z,18.36
2022-09-09T00:11:37.597Z,18.38
2022-09-09T00:14:19.134Z,18.35
2022-09-09T00:16:53.393Z,18.35
2022-09-09T00:19:29.976Z,18.35
2022-09-09T00:21:58.572Z,18.32
2022-09-09T00:24:29.369Z,18.31
2022-09-09T00:27:32.695Z,18.25
2022-09-09T00:30:23.459Z,18.18
2022-09-09T00:32:55.078Z,18.09
2022-09-09T00:35:42.081Z,18.02
2022-09-09T00:38:15.742Z,17.96
2022-09-09T00:40:50.683Z,17.93
2022-09-09T00:43:31.276Z,17.88
2022-09-09T00:46:00.682Z,17.85
2022-09-09T00:48:41.927Z,17.82
2022-09-09T00:51:24.780Z,17.78
2022-09-09T00:54:04.111Z,17.74
2022-09-09T00:56:43.074Z,17.69
2022-09-09T00:59:28.336Z,17.63
2022-09-09T01:01:56.594Z,17.60
2022-09-09T01:04:34.941Z,17.58
2022-09-09T01:07:18.120Z,17.55
2022-09-09T01:09:58.059Z,17.51
2022-09-09T01:12:44.775Z,17.48
2022-09-09T01:15:27.131Z,17.43
2022-09-09T01:18:02.455Z,17.40
2022-09-09T01:20:58.176Z,17.37
2022-09-09T01:23:37.443Z,17.35
2022-09-09T01:26:09.828Z,17.34
2022-09-09T01:28:37.984Z,17.35
2022-09-09T01:31:07.577Z,17.34
2022-09-09T01:33:34.017Z,17.35
2022-09-09T01:36:03.948Z,17.37
2022-09-09T01:38:32.528Z,17.40
2022-09-09T01:40:59.447Z,17.42
2022-09-09T01:43:27.663Z,17.45
2022-09-09T01:45:57.188Z,17.46
2022-09-09T01:48:24.725Z,17.49
2022-09-09T01:50:51.627Z,17.49
2022-09-09T01:53:19.790Z,17.49
2022-09-09T01:56:14.788Z,17.48
2022-09-09T01:58:58.641Z,17.43
2022-09-09T02:01:49.946Z,17.40
2022-09-09T02:04:42.501Z,17.38
2022-09-09T02:07:27.842Z,17.37
2022-09-09T02:10:12.868Z,17.38
2022-09-09T02:12:46.778Z,17.40
2022-09-09T02:15:27.630Z,17.40
2022-09-09T02:17:59.239Z,17.42
2022-09-09T02:20:30.524Z,17.44
2022-09-09T02:23:01.509Z,17.41
2022-09-09T02:25:30.759Z,17.41
2022-09-09T02:27:59.699Z,17.41
2022-09-09T02:30:30.004Z,17.42
2022-09-09T02:32:59.540Z,17.43
2022-09-09T02:35:29.191Z,17.43
2022-09-09T02:38:00.672Z,17.44
2022-09-09T02:40:27.077Z,17.43
2022-09-09T02:42:56.218Z,17.44
2022-09-09T02:45:26.698Z,17.44
2022-09-09T02:48:23.786Z,17.42
2022-09-09T02:51:13.684Z,17.39
2022-09-09T02:53:52.368Z,17.38
2022-09-09T02:56:22.927Z,17.37
2022-09-09T02:58:52.856Z,17.36
2022-09-09T03:01:19.352Z,17.33
2022-09-09T03:03:47.418Z,17.30
2022-09-09T03:06:14.004Z,17.31
2022-09-09T03:08:41.653Z,17.30
2022-09-09T03:11:08.559Z,17.28
2022-09-09T03:13:35.006Z,17.30
2022-09-09T03:16:01.392Z,17.31
2022-09-09T03:18:29.103Z,17.30
2022-09-09T03:20:55.522Z,17.28
2022-09-09T03:23:22.637Z,17.27
2022-09-09T03:25:50.250Z,17.26
2022-09-09T03:28:16.791Z,17.22
2022-09-09T03:30:43.381Z,17.19
2022-09-09T03:33:09.817Z,17.17
2022-09-09T03:35:36.263Z,17.14
2022-09-09T03:38:02.787Z,17.13
2022-09-09T03:40:29.178Z,17.10
2022-09-09T03:42:55.553Z,17.09
2022-09-09T03:45:21.947Z,17.09
2022-09-09T03:47:48.333Z,17.10
2022-09-09T03:50:14.704Z,17.11
2022-09-09T03:52:43.123Z,17.10
2022-09-09T03:55:10.194Z,17.08
2022-09-09T03:57:38.108Z,17.09
2022-09-09T04:00:06.319Z,17.09
2022-09-09T04:02:32.825Z,17.05
2022-09-09T04:05:00.638Z,17.06
2022-09-09T04:07:28.225Z,17.02
2022-09-09T04:09:55.575Z,17.01
2022-09-09T04:12:23.345Z,17.01
2022-09-09T04:14:49.966Z,17.00
2022-09-09T04:17:16.359Z,16.99
2022-09-09T04:19:43.285Z,17.00
2022-09-09T04:22:10.329Z,17.01
2022-09-09T04:24:36.803Z,17.03
2022-09-09T04:27:03.409Z,17.03
2022-09-09T04:29:29.744Z,17.06
2022-09-09T04:31:56.179Z,17.08
2022-09-09T04:34:22.618Z,17.13
2022-09-09T04:36:48.991Z,17.15
2022-09-09T04:39:15.529Z,17.18
2022-09-09T04:41:41.917Z,17.21
2022-09-09T04:44:08.298Z,17.22
2022-09-09T04:46:35.339Z,17.25
2022-09-09T04:49:01.795Z,17.25
2022-09-09T04:51:29.161Z,17.27
2022-09-09T04:53:55.514Z,17.30
2022-09-09T04:56:22.040Z,17.35
2022-09-09T04:58:48.945Z,17.38
2022-09-09T05:01:20.868Z,17.40
2022-09-09T05:03:48.090Z,17.39
2022-09-09T05:06:17.748Z,17.41
2022-09-09T05:08:45.303Z,17.41
2022-09-09T05:11:26.701Z,17.40
2022-09-09T05:13:54.275Z,17.37
2022-09-09T05:16:22.016Z,17.38
2022-09-09T05:18:48.508Z,17.36
2022-09-09T05:21:16.704Z,17.39
2022-09-09T05:23:43.431Z,17.39
2022-09-09T05:26:18.739Z,17.41
2022-09-09T05:28:45.781Z,17.40
2022-09-09T05:31:13.882Z,17.35
2022-09-09T05:33:46.701Z,17.34
2022-09-09T05:36:19.143Z,17.33
2022-09-09T05:38:46.369Z,17.29
2022-09-09T05:41:13.999Z,17.33
2022-09-09T05:43:40.368Z,17.37
2022-09-09T05:46:12.347Z,17.43
2022-09-09T05:48:41.665Z,17.48
2022-09-09T05:51:11.705Z,17.48
2022-09-09T05:53:38.306Z,17.45
2022-09-09T05:56:07.079Z,17.51
2022-09-09T05:58:34.759Z,17.56
2022-09-09T06:01:22.916Z,17.60
2022-09-09T06:03:51.077Z,17.55
2022-09-09T06:06:26.983Z,17.54
2022-09-09T06:08:58.401Z,17.60
2022-09-09T06:11:27.380Z,17.62
2022-09-09T06:13:55.468Z,17.62
2022-09-09T06:16:27.426Z,17.60
2022-09-09T06:18:55.868Z,17.63
2022-09-09T06:21:28.060Z,17.62
2022-09-09T06:23:57.907Z,17.63
2022-09-09T06:26:29.330Z,17.65
2022-09-09T06:28:56.412Z,17.67
2022-09-09T06:31:29.768Z,17.76
2022-09-09T06:33:57.808Z,17.79
2022-09-09T06:36:38.734Z,17.85
2022-09-09T06:39:07.960Z,17.90
2022-09-09T06:41:36.239Z,17.98
2022-09-09T06:44:02.939Z,18.03
2022-09-09T06:46:33.337Z,18.10
2022-09-09T06:49:00.870Z,18.16
2022-09-09T06:51:32.627Z,18.19
2022-09-09T06:54:00.933Z,18.25
2022-09-09T06:56:35.830Z,18.27
2022-09-09T06:59:08.762Z,18.37
2022-09-09T07:01:37.546Z,18.42
2022-09-09T07:04:08.341Z,18.45
2022-09-09T07:06:37.005Z,18.53
2022-09-09T07:09:09.334Z,18.61
2022-09-09T07:11:40.146Z,18.64
2022-09-09T07:14:06.562Z,18.73
2022-09-09T07:16:34.561Z,18.74
2022-09-09T07:19:01.381Z,18.82
2022-09-09T07:21:29.864Z,18.79
2022-09-09T07:23:57.045Z,18.81
2022-09-09T07:26:26.210Z,18.86
2022-09-09T07:28:52.893Z,18.76
2022-09-09T07:31:22.005Z,18.83
2022-09-09T07:33:49.305Z,18.94
2022-09-09T07:36:16.874Z,19.02
2022-09-09T07:38:48.567Z,18.99
2022-09-09T07:41:18.689Z,19.06
2022-09-09T07:43:46.916Z,19.06
2022-09-09T07:46:14.718Z,19.14
2022-09-09T07:48:46.354Z,19.23
2022-09-09T07:51:19.319Z,19.21
2022-09-09T07:53:46.987Z,19.22
2022-09-09T07:56:17.575Z,19.27
2022-09-09T07:58:46.936Z,19.21
2022-09-09T08:01:19.967Z,19.20
2022-09-09T08:03:47.936Z,19.36
2022-09-09T08:06:14.873Z,19.44
2022-09-09T08:08:44.139Z,19.55
2022-09-09T08:11:13.308Z,19.46
2022-09-09T08:13:40.487Z,19.39
2022-09-09T08:16:09.396Z,19.32
2022-09-09T08:18:36.604Z,19.22
2022-09-09T08:21:12.847Z,19.12
2022-09-09T08:23:43.207Z,19.19
2022-09-09T08:26:15.689Z,19.20
2022-09-09T08:28:42.963Z,19.32
2022-09-09T08:31:12.846Z,19.39
2022-09-09T08:33:39.938Z,19.41
2022-09-09T08:36:07.987Z,19.55
2022-09-09T08:38:34.709Z,19.67
2022-09-09T08:41:30.213Z,19.77
2022-09-09T08:44:09.064Z,19.92
2022-09-09T08:47:12.573Z,20.03
2022-09-09T08:49:54.611Z,20.07
2022-09-09T08:52:26.797Z,19.97
2022-09-09T08:54:55.834Z,20.06
2022-09-09T08:57:28.944Z,20.18
2022-09-09T08:59:57.611Z,20.27
2022-09-09T09:02:32.316Z,20.38
2022-09-09T09:05:10.962Z,20.31
2022-09-09T09:08:11.821Z,20.43
2022-09-09T09:10:51.881Z,20.67
2022-09-09T09:13:28.291Z,20.85
2022-09-09T09:16:07.482Z,20.96
2022-09-09T09:18:34.811Z,21.03
2022-09-09T09:21:25.237Z,21.00
2022-09-09T09:24:00.169Z,20.92
2022-09-09T09:26:34.123Z,20.76
2022-09-09T09:29:09.329Z,20.79
2022-09-09T09:31:35.696Z,20.76
2022-09-09T09:34:03.380Z,20.69
2022-09-09T09:36:42.434Z,20.64
2022-09-09T09:41:58.731Z,20.75
2022-09-09T09:44:30.717Z,20.82
2022-09-09T09:47:16.015Z,20.93
2022-09-09T09:49:56.209Z,20.83
2022-09-09T09:52:25.941Z,20.71
2022-09-09T09:54:54.057Z,20.75
2022-09-09T09:57:27.544Z,20.63
2022-09-09T10:00:18.250Z,20.55
2022-09-09T10:02:46.519Z,20.63
2022-09-09T10:05:18.852Z,20.62
2022-09-09T10:07:46.765Z,20.68
2022-09-09T10:10:33.765Z,20.71
2022-09-09T10:13:10.193Z,20.82
2022-09-09T10:15:57.275Z,20.86
2022-09-09T10:18:48.219Z,20.89
2022-09-09T10:21:41.306Z,20.87
2022-09-09T10:24:45.656Z,20.82
2022-09-09T10:27:21.183Z,21.04
2022-09-09T10:30:17.523Z,21.05
2022-09-09T10:33:02.775Z,21.02
2022-09-09T10:35:44.045Z,20.97
2022-09-09T10:38:18.108Z,21.31
2022-09-09T10:40:54.116Z,21.48
2022-09-09T10:43:48.279Z,21.93
2022-09-09T10:46:52.969Z,22.38
2022-09-09T10:49:42.196Z,22.58
2022-09-09T10:52:17.081Z,22.64
2022-09-09T10:55:00.023Z,22.66
2022-09-09T10:57:35.127Z,22.61
2022-09-09T11:00:14.701Z,22.41
2022-09-09T11:02:43.086Z,22.13
2022-09-09T11:05:15.463Z,21.81
2022-09-09T11:07:47.157Z,21.70
2022-09-09T11:10:27.500Z,21.64
2022-09-09T11:13:00.245Z,21.65
2022-09-09T11:15:37.992Z,21.45
2022-09-09T11:18:07.730Z,21.35
2022-09-09T11:20:35.882Z,21.18
2022-09-09T11:23:12.835Z,21.20
2022-09-09T11:26:04.643Z,20.99
2022-09-09T11:28:48.130Z,21.00
2022-09-09T11:31:37.392Z,20.94
2022-09-09T11:34:22.404Z,21.00
2022-09-09T11:37:27.153Z,20.95
2022-09-09T11:40:15.504Z,21.03
2022-09-09T11:42:43.109Z,21.01
2022-09-09T11:45:22.137Z,21.13
2022-09-09T11:47:56.495Z,21.21
2022-09-09T11:50:22.807Z,21.75
2022-09-09T11:52:50.511Z,22.41
2022-09-09T11:55:27.957Z,22.64
2022-09-09T11:58:03.172Z,22.96
2022-09-09T12:00:49.529Z,23.38
2022-09-09T12:03:45.428Z,23.46
2022-09-09T12:06:20.923Z,23.77
2022-09-09T12:08:54.951Z,24.20
2022-09-09T12:11:27.027Z,24.31
2022-09-09T12:13:55.640Z,24.60
2022-09-09T12:16:38.199Z,24.45
2022-09-09T12:19:27.042Z,24.93
2022-09-09T12:22:07.605Z,24.65
2022-09-09T12:24:45.622Z,24.73
2022-09-09T12:27:47.925Z,25.15
2022-09-09T12:30:18.435Z,25.35
2022-09-09T12:32:47.526Z,25.54
2022-09-09T12:35:29.332Z,25.33
2022-09-09T12:38:01.101Z,24.84
2022-09-09T12:40:36.012Z,24.55
2022-09-09T12:43:17.367Z,24.42
2022-09-09T12:45:44.077Z,24.13
2022-09-09T12:48:13.039Z,23.92
2022-09-09T12:50:47.034Z,23.77
2022-09-09T12:53:29.869Z,23.70
2022-09-09T12:56:03.496Z,23.71
2022-09-09T12:58:35.783Z,23.69
2022-09-09T13:01:06.027Z,23.42
2022-09-09T13:03:44.021Z,23.36
2022-09-09T13:06:29.060Z,23.31
2022-09-09T13:08:59.989Z,23.19
2022-09-09T13:11:40.544Z,23.19
2022-09-09T13:14:07.482Z,23.17
2022-09-09T13:16:40.487Z,23.19
2022-09-09T13:19:14.515Z,23.10
2022-09-09T13:21:41.118Z,23.10
2022-09-09T13:24:43.570Z,22.94
2022-09-09T13:27:30.413Z,22.87
2022-09-09T13:29:57.747Z,22.93
2022-09-09T13:32:27.715Z,22.83
2022-09-09T13:34:59.854Z,22.84
2022-09-09T13:37:37.766Z,22.89
2022-09-09T13:40:06.950Z,22.77
2022-09-09T13:42:39.633Z,22.87
2022-09-09T13:45:06.681Z,22.71
2022-09-09T13:47:35.459Z,22.74
2022-09-09T13:50:21.910Z,22.42
2022-09-09T13:52:54.253Z,22.10
2022-09-09T13:55:23.276Z,21.88
2022-09-09T13:57:57.904Z,21.78
2022-09-09T14:00:25.167Z,21.65
2022-09-09T14:02:52.280Z,21.50
2022-09-09T14:05:19.654Z,21.37
2022-09-09T14:07:50.072Z,21.17
2022-09-09T14:10:18.997Z,20.97
2022-09-09T14:12:45.343Z,20.72
2022-09-09T14:15:13.730Z,20.55
2022-09-09T14:17:40.325Z,20.27
2022-09-09T14:20:10.167Z,20.11
2022-09-09T14:22:37.291Z,20.00
2022-09-09T14:25:04.571Z,20.09
2022-09-09T14:27:31.136Z,20.13
2022-09-09T14:29:58.665Z,20.07
2022-09-09T14:32:25.079Z,20.06
2022-09-09T14:34:51.442Z,20.13
2022-09-09T14:37:19.183Z,20.00
2022-09-09T14:39:45.839Z,20.03
2022-09-09T14:42:12.265Z,20.03
2022-09-09T14:44:41.691Z,20.13
2022-09-09T14:47:09.144Z,20.09
2022-09-09T14:49:36.507Z,20.14
2022-09-09T14:52:03.396Z,20.21
2022-09-09T14:54:30.159Z,20.27
2022-09-09T14:56:58.060Z,20.30
2022-09-09T14:59:24.505Z,20.28
2022-09-09T15:01:50.980Z,20.29
2022-09-09T15:04:17.850Z,20.27
2022-09-09T15:06:47.963Z,20.30
2022-09-09T15:09:14.397Z,20.31
2022-09-09T15:11:40.971Z,20.32
2022-09-09T15:14:09.743Z,20.31
2022-09-09T15:16:36.767Z,20.27
2022-09-09T15:19:04.054Z,20.28
2022-09-09T15:21:33.054Z,20.29
2022-09-09T15:24:00.143Z,20.29
2022-09-09T15:26:28.130Z,20.31
2022-09-09T15:28:55.669Z,20.27
2022-09-09T15:31:31.239Z,20.25
2022-09-09T15:34:03.105Z,20.24
2022-09-09T15:36:46.947Z,20.20
2022-09-09T15:39:18.733Z,20.07
2022-09-09T15:41:47.723Z,20.08
2022-09-09T15:44:15.061Z,20.02
2022-09-09T15:46:44.469Z,20.03
2022-09-09T15:49:13.820Z,19.96
2022-09-09T15:51:45.246Z,19.87
2022-09-09T15:54:18.336Z,19.84
2022-09-09T15:56:46.287Z,19.72
2022-09-09T15:59:12.839Z,19.67
2022-09-09T16:01:43.342Z,19.68
2022-09-09T16:04:10.080Z,19.65
2022-09-09T16:06:37.637Z,19.67
2022-09-09T16:09:07.250Z,19.66
2022-09-09T16:11:36.752Z,19.64
2022-09-09T16:14:04.948Z,19.58
2022-09-09T16:16:31.957Z,19.55
2022-09-09T16:19:04.384Z,19.49
2022-09-09T16:21:38.425Z,19.37
2022-09-09T16:24:05.988Z,19.30
2022-09-09T16:26:35.315Z,19.23
2022-09-09T16:29:03.116Z,19.14
2022-09-09T16:31:30.883Z,19.07
2022-09-09T16:33:57.508Z,19.05
2022-09-09T16:36:26.824Z,19.05
2022-09-09T16:38:58.398Z,19.07
2022-09-09T16:41:26.100Z,19.06
2022-09-09T16:44:00.185Z,19.05
2022-09-09T16:46:28.764Z,19.01
2022-09-09T16:48:58.667Z,18.92
2022-09-09T16:51:28.758Z,18.91
2022-09-09T16:53:56.319Z,18.86
2022-09-09T16:56:28.282Z,18.82
2022-09-09T16:58:59.770Z,18.77
2022-09-09T17:01:28.236Z,18.73
2022-09-09T17:04:00.598Z,18.70
2022-09-09T17:06:28.625Z,18.66
2022-09-09T17:09:03.805Z,18.63
2022-09-09T17:11:30.578Z,18.59
2022-09-09T17:13:58.948Z,18.59
2022-09-09T17:16:30.746Z,18.59
2022-09-09T17:18:59.420Z,18.59
2022-09-09T17:21:27.215Z,18.62
2022-09-09T17:23:55.034Z,18.67
2022-09-09T17:26:23.604Z,18.68
2022-09-09T17:28:50.154Z,18.65
2022-09-09T17:31:18.689Z,18.63
2022-09-09T17:33:48.854Z,18.62
2022-09-09T17:36:22.750Z,18.64
2022-09-09T17:38:50.016Z,18.61
2022-09-09T17:41:22.798Z,18.63
2022-09-09T17:43:50.468Z,18.63
2022-09-09T17:46:26.207Z,18.63
2022-09-09T17:48:57.140Z,18.59
2022-09-09T17:51:28.683Z,18.59
2022-09-09T17:53:59.244Z,18.59
2022-09-09T17:56:27.153Z,18.63
2022-09-09T17:58:53.824Z,18.62
2022-09-09T18:01:23.191Z,18.61
2022-09-09T18:03:50.584Z,18.58
2022-09-09T18:06:20.653Z,18.55
2022-09-09T18:08:52.308Z,18.53
2022-09-09T18:11:20.993Z,18.48
2022-09-09T18:13:51.337Z,18.44
2022-09-09T18:16:18.611Z,18.35
2022-09-09T18:18:46.081Z,18.30
2022-09-09T18:21:12.647Z,18.26
2022-09-09T18:23:42.881Z,18.26
2022-09-09T18:26:14.909Z,18.25
2022-09-09T18:28:42.911Z,18.22
2022-09-09T18:31:14.447Z,18.21
2022-09-09T18:33:43.244Z,18.21
2022-09-09T18:36:12.593Z,18.17
2022-09-09T18:38:39.365Z,18.12
2022-09-09T18:41:24.135Z,18.06
2022-09-09T18:43:52.556Z,18.03
2022-09-09T18:46:20.001Z,17.96
2022-09-09T18:48:48.063Z,17.92
2022-09-09T18:51:16.427Z,17.90
2022-09-09T18:53:43.463Z,17.85
2022-09-09T18:56:12.536Z,17.80
2022-09-09T18:58:40.223Z,17.72
2022-09-09T19:01:12.351Z,17.67
2022-09-09T19:03:39.443Z,17.58
2022-09-09T19:06:09.624Z,17.50
2022-09-09T19:08:37.465Z,17.41
2022-09-09T19:11:05.247Z,17.38
2022-09-09T19:13:32.970Z,17.37
2022-09-09T19:16:07.595Z,17.33
2022-09-09T19:18:34.579Z,17.30
2022-09-09T19:21:11.480Z,17.32
2022-09-09T19:23:39.011Z,17.28
2022-09-09T19:26:06.302Z,17.26
2022-09-09T19:28:35.151Z,17.27
2022-09-09T19:31:06.610Z,17.29
2022-09-09T19:33:33.445Z,17.27
2022-09-09T19:36:06.482Z,17.22
2022-09-09T19:38:33.693Z,17.20
2022-09-09T19:41:08.903Z,17.17
2022-09-09T19:43:35.602Z,17.16
2022-09-09T19:46:05.047Z,17.17
2022-09-09T19:48:33.623Z,17.18
2022-09-09T19:51:15.625Z,17.16
2022-09-09T19:53:44.888Z,17.14
2022-09-09T19:56:11.795Z,17.14
2022-09-09T19:58:40.180Z,17.14
2022-09-09T20:01:12.560Z,17.15
2022-09-09T20:03:40.657Z,17.13
2022-09-09T20:06:10.508Z,17.15
2022-09-09T20:08:37.834Z,17.13
2022-09-09T20:11:05.681Z,17.14
2022-09-09T20:13:34.661Z,17.16
2022-09-09T20:16:07.212Z,17.17
2022-09-09T20:18:37.485Z,17.16
2022-09-09T20:21:09.506Z,17.15
2022-09-09T20:23:37.417Z,17.12
2022-09-09T20:26:06.628Z,17.08
2022-09-09T20:28:38.539Z,17.03
2022-09-09T20:31:17.037Z,17.03
2022-09-09T20:33:43.882Z,16.98
2022-09-09T20:36:17.847Z,16.96
2022-09-09T20:38:46.893Z,16.94
2022-09-09T20:41:18.354Z,16.91
2022-09-09T20:43:52.741Z,16.90
2022-09-09T20:46:21.216Z,16.88
2022-09-09T20:48:50.294Z,16.88
2022-09-09T20:51:17.671Z,16.85
2022-09-09T20:53:44.125Z,16.79
2022-09-09T20:56:10.864Z,16.78
2022-09-09T20:58:37.640Z,16.77
2022-09-09T21:01:07.413Z,16.77
2022-09-09T21:03:39.476Z,16.76
2022-09-09T21:06:07.109Z,16.76
2022-09-09T21:08:35.157Z,16.76
2022-09-09T21:11:02.687Z,16.74
2022-09-09T21:13:30.552Z,16.72
2022-09-09T21:15:57.282Z,16.70
2022-09-09T21:18:24.236Z,16.67
2022-09-09T21:20:50.997Z,16.65
2022-09-09T21:23:18.094Z,16.62
2022-09-09T21:25:44.724Z,16.62
2022-09-09T21:28:11.508Z,16.60
2022-09-09T21:30:44.148Z,16.61
2022-09-09T21:33:11.494Z,16.61
2022-09-09T21:35:39.912Z,16.62
2022-09-09T21:38:09.585Z,16.62
2022-09-09T21:40:39.585Z,16.63
2022-09-09T21:43:06.503Z,16.61
2022-09-09T21:45:37.315Z,16.62
2022-09-09T21:48:05.360Z,16.60
2022-09-09T21:50:36.249Z,16.59
2022-09-09T21:53:02.997Z,16.58
2022-09-09T21:55:34.364Z,16.57
2022-09-09T21:58:00.719Z,16.56
2022-09-09T22:00:27.145Z,16.54
2022-09-09T22:02:53.560Z,16.54
2022-09-09T22:05:19.925Z,16.53
2022-09-09T22:07:46.290Z,16.53
2022-09-09T22:10:12.843Z,16.54
2022-09-09T22:12:39.513Z,16.54
2022-09-09T22:15:07.758Z,16.54
2022-09-09T22:17:35.048Z,16.53
2022-09-09T22:20:01.985Z,16.52
2022-09-09T22:22:28.397Z,16.53
2022-09-09T22:24:54.826Z,16.52
2022-09-09T22:27:21.235Z,16.50
2022-09-09T22:29:47.605Z,16.47
2022-09-09T22:32:14.439Z,16.45
2022-09-09T22:34:41.179Z,16.47
2022-09-09T22:37:07.611Z,16.46
2022-09-09T22:39:34.505Z,16.46
2022-09-09T22:42:01.015Z,16.47
2022-09-09T22:44:27.843Z,16.45
2022-09-09T22:46:55.618Z,16.42
2022-09-09T22:49:23.476Z,16.40
2022-09-09T22:51:50.122Z,16.37
2022-09-09T22:54:21.600Z,16.35
2022-09-09T22:56:49.609Z,16.32
2022-09-09T22:59:16.032Z,16.28
2022-09-09T23:01:43.287Z,16.26
2022-09-09T23:04:09.948Z,16.23
2022-09-09T23:06:38.433Z,16.18
2022-09-09T23:09:05.409Z,16.14
2022-09-09T23:11:36.938Z,16.10
2022-09-09T23:14:07.584Z,16.06
2022-09-09T23:16:39.476Z,16.02
2022-09-09T23:19:11.097Z,15.99
2022-09-09T23:21:40.434Z,15.95
2022-09-09T23:24:08.574Z,15.93
2022-09-09T23:26:34.967Z,15.91
2022-09-09T23:29:02.433Z,15.90
2022-09-09T23:31:33.112Z,15.88
2022-09-09T23:34:00.913Z,15.86
2022-09-09T23:36:29.593Z,15.84
2022-09-09T23:38:58.454Z,15.82
2022-09-09T23:41:25.233Z,15.79
2022-09-09T23:43:53.163Z,15.76
2022-09-09T23:46:22.633Z,15.75
2022-09-09T23:48:52.050Z,15.74
2022-09-09T23:51:22.399Z,15.72
2022-09-09T23:53:51.050Z,15.69
2022-09-09T23:56:22.139Z,15.66
2022-09-09T23:58:49.815Z,15.63
